sensor_id;sensor_type;location;lat;lon;timestamp;P1;durP1;ratioP1;P2;durP2;ratioP2
51764;SDS011;37835;53.256;6.456;2023-07-22T00:01:09;7.72;;;4.38;;
51764;SDS011;37835;53.256;6.456;2023-07-22T00:03:35;8.85;;;4.10;;
51764;SDS011;37835;53.256;6.456;2023-07-22T00:06:07;6.03;;;4.15;;
51764;SDS011;37835;53.256;6.456;2023-07-22T00:08:34;11.32;;;4.70;;
51764;SDS011;37835;53.256;6.456;2023-07-22T00:11:02;9.07;;;4.07;;
51764;SDS011;37835;53.256;6.456;2023-07-22T00:13:28;6.22;;;3.80;;
51764;SDS011;37835;53.256;6.456;2023-07-22T00:15:54;6.47;;;3.95;;
51764;SDS011;37835;53.256;6.456;2023-07-22T00:18:20;9.80;;;4.07;;
51764;SDS011;37835;53.256;6.456;2023-07-22T00:20:46;5.60;;;3.60;;
51764;SDS011;37835;53.256;6.456;2023-07-22T00:23:11;6.15;;;3.53;;
51764;SDS011;37835;53.256;6.456;2023-07-22T00:25:37;6.68;;;3.20;;
51764;SDS011;37835;53.256;6.456;2023-07-22T00:28:03;6.05;;;3.05;;
51764;SDS011;37835;53.256;6.456;2023-07-22T00:30:29;4.32;;;3.08;;
51764;SDS011;37835;53.256;6.456;2023-07-22T00:32:54;8.68;;;3.00;;
51764;SDS011;37835;53.256;6.456;2023-07-22T00:35:20;3.53;;;2.67;;
51764;SDS011;37835;53.256;6.456;2023-07-22T00:37:46;5.07;;;2.67;;
51764;SDS011;37835;53.256;6.456;2023-07-22T00:40:12;3.40;;;2.33;;
51764;SDS011;37835;53.256;6.456;2023-07-22T00:42:38;4.85;;;2.17;;
51764;SDS011;37835;53.256;6.456;2023-07-22T00:45:04;5.25;;;2.20;;
51764;SDS011;37835;53.256;6.456;2023-07-22T00:47:30;9.07;;;3.10;;
51764;SDS011;37835;53.256;6.456;2023-07-22T00:49:58;3.75;;;2.38;;
51764;SDS011;37835;53.256;6.456;2023-07-22T00:52:28;7.35;;;2.90;;
51764;SDS011;37835;53.256;6.456;2023-07-22T00:54:53;6.50;;;3.00;;
51764;SDS011;37835;53.256;6.456;2023-07-22T00:57:20;4.28;;;2.95;;
51764;SDS011;37835;53.256;6.456;2023-07-22T00:59:46;6.07;;;3.30;;
51764;SDS011;37835;53.256;6.456;2023-07-22T01:02:11;5.13;;;3.88;;
51764;SDS011;37835;53.256;6.456;2023-07-22T01:04:37;8.88;;;3.75;;
51764;SDS011;37835;53.256;6.456;2023-07-22T01:07:03;7.95;;;4.28;;
51764;SDS011;37835;53.256;6.456;2023-07-22T01:09:36;10.82;;;4.82;;
51764;SDS011;37835;53.256;6.456;2023-07-22T01:12:03;9.73;;;4.20;;
51764;SDS011;37835;53.256;6.456;2023-07-22T01:14:30;8.52;;;4.25;;
51764;SDS011;37835;53.256;6.456;2023-07-22T01:17:04;9.05;;;4.50;;
51764;SDS011;37835;53.256;6.456;2023-07-22T01:19:30;10.07;;;4.82;;
51764;SDS011;37835;53.256;6.456;2023-07-22T01:21:57;10.05;;;4.68;;
51764;SDS011;37835;53.256;6.456;2023-07-22T01:24:25;8.43;;;4.40;;
51764;SDS011;37835;53.256;6.456;2023-07-22T01:26:51;8.93;;;4.75;;
51764;SDS011;37835;53.256;6.456;2023-07-22T01:29:17;8.55;;;4.88;;
51764;SDS011;37835;53.256;6.456;2023-07-22T01:31:43;5.70;;;4.20;;
51764;SDS011;37835;53.256;6.456;2023-07-22T01:34:11;13.60;;;5.00;;
51764;SDS011;37835;53.256;6.456;2023-07-22T01:36:37;8.80;;;4.55;;
51764;SDS011;37835;53.256;6.456;2023-07-22T01:39:03;8.65;;;4.20;;
51764;SDS011;37835;53.256;6.456;2023-07-22T01:41:30;8.10;;;4.85;;
51764;SDS011;37835;53.256;6.456;2023-07-22T01:43:56;7.93;;;4.60;;
51764;SDS011;37835;53.256;6.456;2023-07-22T01:46:22;10.40;;;5.10;;
51764;SDS011;37835;53.256;6.456;2023-07-22T01:48:47;6.40;;;3.85;;
51764;SDS011;37835;53.256;6.456;2023-07-22T01:51:13;8.85;;;4.35;;
51764;SDS011;37835;53.256;6.456;2023-07-22T01:53:39;8.75;;;4.30;;
51764;SDS011;37835;53.256;6.456;2023-07-22T01:56:04;7.93;;;4.30;;
51764;SDS011;37835;53.256;6.456;2023-07-22T01:58:30;7.38;;;4.18;;
51764;SDS011;37835;53.256;6.456;2023-07-22T02:00:56;6.70;;;4.22;;
51764;SDS011;37835;53.256;6.456;2023-07-22T02:03:21;9.27;;;5.03;;
51764;SDS011;37835;53.256;6.456;2023-07-22T02:05:47;7.13;;;4.47;;
51764;SDS011;37835;53.256;6.456;2023-07-22T02:08:13;6.57;;;4.28;;
51764;SDS011;37835;53.256;6.456;2023-07-22T02:10:38;6.82;;;4.25;;
51764;SDS011;37835;53.256;6.456;2023-07-22T02:13:04;10.38;;;4.63;;
51764;SDS011;37835;53.256;6.456;2023-07-22T02:15:30;10.15;;;4.07;;
51764;SDS011;37835;53.256;6.456;2023-07-22T02:17:57;4.80;;;3.55;;
51764;SDS011;37835;53.256;6.456;2023-07-22T02:20:23;8.27;;;4.53;;
51764;SDS011;37835;53.256;6.456;2023-07-22T02:22:51;8.20;;;4.85;;
51764;SDS011;37835;53.256;6.456;2023-07-22T02:25:17;7.70;;;4.35;;
51764;SDS011;37835;53.256;6.456;2023-07-22T02:27:43;9.75;;;4.55;;
51764;SDS011;37835;53.256;6.456;2023-07-22T02:30:08;6.38;;;4.22;;
51764;SDS011;37835;53.256;6.456;2023-07-22T02:32:36;10.55;;;4.95;;
51764;SDS011;37835;53.256;6.456;2023-07-22T02:35:03;11.23;;;4.72;;
51764;SDS011;37835;53.256;6.456;2023-07-22T02:37:29;7.25;;;4.30;;
51764;SDS011;37835;53.256;6.456;2023-07-22T02:39:54;6.57;;;4.13;;
51764;SDS011;37835;53.256;6.456;2023-07-22T02:42:20;8.52;;;4.68;;
51764;SDS011;37835;53.256;6.456;2023-07-22T02:44:46;7.47;;;4.40;;
51764;SDS011;37835;53.256;6.456;2023-07-22T02:47:11;7.43;;;4.30;;
51764;SDS011;37835;53.256;6.456;2023-07-22T02:49:37;7.80;;;4.35;;
51764;SDS011;37835;53.256;6.456;2023-07-22T02:52:02;10.85;;;4.50;;
51764;SDS011;37835;53.256;6.456;2023-07-22T02:54:28;8.07;;;4.65;;
51764;SDS011;37835;53.256;6.456;2023-07-22T02:56:54;8.18;;;4.80;;
51764;SDS011;37835;53.256;6.456;2023-07-22T02:59:19;8.70;;;4.53;;
51764;SDS011;37835;53.256;6.456;2023-07-22T03:01:45;6.60;;;4.20;;
51764;SDS011;37835;53.256;6.456;2023-07-22T03:04:10;6.05;;;4.00;;
51764;SDS011;37835;53.256;6.456;2023-07-22T03:06:37;9.48;;;4.13;;
51764;SDS011;37835;53.256;6.456;2023-07-22T03:09:03;6.78;;;4.20;;
51764;SDS011;37835;53.256;6.456;2023-07-22T03:11:29;8.02;;;4.03;;
51764;SDS011;37835;53.256;6.456;2023-07-22T03:13:55;7.90;;;4.07;;
51764;SDS011;37835;53.256;6.456;2023-07-22T03:16:21;8.43;;;3.97;;
51764;SDS011;37835;53.256;6.456;2023-07-22T03:18:46;8.13;;;3.80;;
51764;SDS011;37835;53.256;6.456;2023-07-22T03:21:12;6.65;;;3.70;;
51764;SDS011;37835;53.256;6.456;2023-07-22T03:23:37;7.47;;;4.07;;
51764;SDS011;37835;53.256;6.456;2023-07-22T03:26:03;7.03;;;3.97;;
51764;SDS011;37835;53.256;6.456;2023-07-22T03:28:29;7.22;;;4.32;;
51764;SDS011;37835;53.256;6.456;2023-07-22T03:30:55;7.25;;;4.10;;
51764;SDS011;37835;53.256;6.456;2023-07-22T03:33:21;10.35;;;4.10;;
51764;SDS011;37835;53.256;6.456;2023-07-22T03:35:47;6.47;;;4.13;;
51764;SDS011;37835;53.256;6.456;2023-07-22T03:38:12;6.38;;;4.22;;
51764;SDS011;37835;53.256;6.456;2023-07-22T03:40:38;6.95;;;4.55;;
51764;SDS011;37835;53.256;6.456;2023-07-22T03:43:04;7.90;;;5.13;;
51764;SDS011;37835;53.256;6.456;2023-07-22T03:45:30;10.07;;;5.60;;
51764;SDS011;37835;53.256;6.456;2023-07-22T03:47:59;7.82;;;5.28;;
51764;SDS011;37835;53.256;6.456;2023-07-22T03:50:25;12.55;;;6.40;;
51764;SDS011;37835;53.256;6.456;2023-07-22T03:52:51;8.45;;;5.40;;
51764;SDS011;37835;53.256;6.456;2023-07-22T03:55:17;7.15;;;4.88;;
51764;SDS011;37835;53.256;6.456;2023-07-22T03:57:44;8.52;;;5.38;;
51764;SDS011;37835;53.256;6.456;2023-07-22T04:00:10;8.00;;;4.45;;
51764;SDS011;37835;53.256;6.456;2023-07-22T04:02:36;10.05;;;5.03;;
51764;SDS011;37835;53.256;6.456;2023-07-22T04:05:02;7.65;;;4.43;;
51764;SDS011;37835;53.256;6.456;2023-07-22T04:07:28;8.18;;;4.70;;
51764;SDS011;37835;53.256;6.456;2023-07-22T04:09:54;7.60;;;4.60;;
51764;SDS011;37835;53.256;6.456;2023-07-22T04:12:19;8.60;;;4.30;;
51764;SDS011;37835;53.256;6.456;2023-07-22T04:14:45;6.82;;;4.07;;
51764;SDS011;37835;53.256;6.456;2023-07-22T04:17:10;7.53;;;4.22;;
51764;SDS011;37835;53.256;6.456;2023-07-22T04:19:36;8.18;;;4.22;;
51764;SDS011;37835;53.256;6.456;2023-07-22T04:22:02;5.63;;;4.00;;
51764;SDS011;37835;53.256;6.456;2023-07-22T04:24:32;8.70;;;4.85;;
51764;SDS011;37835;53.256;6.456;2023-07-22T04:26:58;6.60;;;3.85;;
51764;SDS011;37835;53.256;6.456;2023-07-22T04:29:24;11.00;;;4.30;;
51764;SDS011;37835;53.256;6.456;2023-07-22T04:31:49;5.25;;;3.70;;
51764;SDS011;37835;53.256;6.456;2023-07-22T04:34:15;6.63;;;3.97;;
51764;SDS011;37835;53.256;6.456;2023-07-22T04:36:40;9.52;;;4.05;;
51764;SDS011;37835;53.256;6.456;2023-07-22T04:39:06;8.30;;;4.18;;
51764;SDS011;37835;53.256;6.456;2023-07-22T04:41:32;8.13;;;4.30;;
51764;SDS011;37835;53.256;6.456;2023-07-22T04:43:58;7.57;;;4.82;;
51764;SDS011;37835;53.256;6.456;2023-07-22T04:46:24;8.02;;;4.30;;
51764;SDS011;37835;53.256;6.456;2023-07-22T04:48:51;7.95;;;4.35;;
51764;SDS011;37835;53.256;6.456;2023-07-22T04:51:19;6.28;;;3.78;;
51764;SDS011;37835;53.256;6.456;2023-07-22T04:53:44;9.38;;;5.18;;
51764;SDS011;37835;53.256;6.456;2023-07-22T04:56:10;8.93;;;4.55;;
51764;SDS011;37835;53.256;6.456;2023-07-22T04:58:35;8.43;;;4.65;;
51764;SDS011;37835;53.256;6.456;2023-07-22T05:01:01;8.20;;;4.30;;
51764;SDS011;37835;53.256;6.456;2023-07-22T05:03:26;8.70;;;4.50;;
51764;SDS011;37835;53.256;6.456;2023-07-22T05:05:52;8.73;;;4.88;;
51764;SDS011;37835;53.256;6.456;2023-07-22T05:08:18;8.18;;;5.25;;
51764;SDS011;37835;53.256;6.456;2023-07-22T05:10:43;10.50;;;5.72;;
51764;SDS011;37835;53.256;6.456;2023-07-22T05:13:09;9.23;;;5.75;;
51764;SDS011;37835;53.256;6.456;2023-07-22T05:15:35;8.50;;;5.75;;
51764;SDS011;37835;53.256;6.456;2023-07-22T05:18:00;14.18;;;5.80;;
51764;SDS011;37835;53.256;6.456;2023-07-22T05:20:26;9.02;;;5.43;;
51764;SDS011;37835;53.256;6.456;2023-07-22T05:22:52;11.73;;;5.93;;
51764;SDS011;37835;53.256;6.456;2023-07-22T05:25:17;9.30;;;6.00;;
51764;SDS011;37835;53.256;6.456;2023-07-22T05:27:43;13.63;;;6.68;;
51764;SDS011;37835;53.256;6.456;2023-07-22T05:30:08;9.38;;;6.03;;
51764;SDS011;37835;53.256;6.456;2023-07-22T05:32:35;13.70;;;7.13;;
51764;SDS011;37835;53.256;6.456;2023-07-22T05:35:00;10.43;;;6.95;;
51764;SDS011;37835;53.256;6.456;2023-07-22T05:37:30;10.00;;;7.07;;
51764;SDS011;37835;53.256;6.456;2023-07-22T05:39:56;13.70;;;7.45;;
51764;SDS011;37835;53.256;6.456;2023-07-22T05:42:21;15.32;;;7.65;;
51764;SDS011;37835;53.256;6.456;2023-07-22T05:44:47;14.00;;;6.93;;
51764;SDS011;37835;53.256;6.456;2023-07-22T05:47:13;11.27;;;7.00;;
51764;SDS011;37835;53.256;6.456;2023-07-22T05:49:39;10.00;;;6.75;;
51764;SDS011;37835;53.256;6.456;2023-07-22T05:52:05;13.55;;;7.15;;
51764;SDS011;37835;53.256;6.456;2023-07-22T05:54:31;14.30;;;7.50;;
51764;SDS011;37835;53.256;6.456;2023-07-22T05:56:57;12.57;;;7.07;;
51764;SDS011;37835;53.256;6.456;2023-07-22T05:59:22;12.00;;;7.78;;
51764;SDS011;37835;53.256;6.456;2023-07-22T06:01:48;12.77;;;8.10;;
51764;SDS011;37835;53.256;6.456;2023-07-22T06:04:13;11.30;;;7.30;;
51764;SDS011;37835;53.256;6.456;2023-07-22T06:06:39;14.57;;;8.38;;
51764;SDS011;37835;53.256;6.456;2023-07-22T06:09:04;11.10;;;7.25;;
51764;SDS011;37835;53.256;6.456;2023-07-22T06:11:30;13.23;;;7.35;;
51764;SDS011;37835;53.256;6.456;2023-07-22T06:13:55;12.63;;;7.95;;
51764;SDS011;37835;53.256;6.456;2023-07-22T06:16:21;10.88;;;7.65;;
51764;SDS011;37835;53.256;6.456;2023-07-22T06:18:47;13.38;;;8.35;;
51764;SDS011;37835;53.256;6.456;2023-07-22T06:21:13;13.38;;;8.20;;
51764;SDS011;37835;53.256;6.456;2023-07-22T06:23:38;10.55;;;7.25;;
51764;SDS011;37835;53.256;6.456;2023-07-22T06:26:04;10.38;;;8.10;;
51764;SDS011;37835;53.256;6.456;2023-07-22T06:28:30;11.90;;;7.35;;
51764;SDS011;37835;53.256;6.456;2023-07-22T06:30:55;11.13;;;7.97;;
51764;SDS011;37835;53.256;6.456;2023-07-22T06:33:22;13.77;;;8.65;;
51764;SDS011;37835;53.256;6.456;2023-07-22T06:35:47;12.07;;;7.75;;
51764;SDS011;37835;53.256;6.456;2023-07-22T06:38:13;14.95;;;7.93;;
51764;SDS011;37835;53.256;6.456;2023-07-22T06:40:39;13.93;;;7.85;;
51764;SDS011;37835;53.256;6.456;2023-07-22T06:43:05;16.50;;;9.23;;
51764;SDS011;37835;53.256;6.456;2023-07-22T06:45:31;19.65;;;8.88;;
51764;SDS011;37835;53.256;6.456;2023-07-22T06:47:57;13.45;;;9.32;;
51764;SDS011;37835;53.256;6.456;2023-07-22T06:50:23;13.13;;;8.82;;
51764;SDS011;37835;53.256;6.456;2023-07-22T06:52:49;15.60;;;9.15;;
51764;SDS011;37835;53.256;6.456;2023-07-22T06:55:15;17.00;;;8.70;;
51764;SDS011;37835;53.256;6.456;2023-07-22T06:57:40;12.98;;;9.13;;
51764;SDS011;37835;53.256;6.456;2023-07-22T07:00:06;14.38;;;8.98;;
51764;SDS011;37835;53.256;6.456;2023-07-22T07:02:34;15.07;;;9.48;;
51764;SDS011;37835;53.256;6.456;2023-07-22T07:05:01;14.10;;;9.05;;
51764;SDS011;37835;53.256;6.456;2023-07-22T07:07:26;11.85;;;9.02;;
51764;SDS011;37835;53.256;6.456;2023-07-22T07:09:52;14.55;;;9.05;;
51764;SDS011;37835;53.256;6.456;2023-07-22T07:12:18;15.60;;;8.88;;
51764;SDS011;37835;53.256;6.456;2023-07-22T07:14:43;15.32;;;9.82;;
51764;SDS011;37835;53.256;6.456;2023-07-22T07:17:09;14.55;;;9.00;;
51764;SDS011;37835;53.256;6.456;2023-07-22T07:19:34;16.77;;;9.70;;
51764;SDS011;37835;53.256;6.456;2023-07-22T07:22:00;13.10;;;9.50;;
51764;SDS011;37835;53.256;6.456;2023-07-22T07:24:26;12.68;;;9.27;;
51764;SDS011;37835;53.256;6.456;2023-07-22T07:26:52;14.18;;;9.15;;
51764;SDS011;37835;53.256;6.456;2023-07-22T07:29:17;14.07;;;9.02;;
51764;SDS011;37835;53.256;6.456;2023-07-22T07:31:43;13.77;;;9.20;;
51764;SDS011;37835;53.256;6.456;2023-07-22T07:34:08;15.63;;;9.00;;
51764;SDS011;37835;53.256;6.456;2023-07-22T07:36:34;15.77;;;8.93;;
51764;SDS011;37835;53.256;6.456;2023-07-22T07:39:00;13.60;;;9.00;;
51764;SDS011;37835;53.256;6.456;2023-07-22T07:41:25;15.48;;;10.05;;
51764;SDS011;37835;53.256;6.456;2023-07-22T07:43:51;20.77;;;9.80;;
51764;SDS011;37835;53.256;6.456;2023-07-22T07:48:51;14.75;;;10.15;;
51764;SDS011;37835;53.256;6.456;2023-07-22T07:51:21;14.65;;;10.15;;
51764;SDS011;37835;53.256;6.456;2023-07-22T07:53:48;15.55;;;10.68;;
51764;SDS011;37835;53.256;6.456;2023-07-22T07:56:15;15.18;;;9.70;;
51764;SDS011;37835;53.256;6.456;2023-07-22T07:58:41;16.67;;;9.98;;
51764;SDS011;37835;53.256;6.456;2023-07-22T08:01:07;13.35;;;9.52;;
51764;SDS011;37835;53.256;6.456;2023-07-22T08:03:34;14.32;;;9.57;;
51764;SDS011;37835;53.256;6.456;2023-07-22T08:06:01;12.23;;;8.80;;
51764;SDS011;37835;53.256;6.456;2023-07-22T08:08:27;14.75;;;9.43;;
51764;SDS011;37835;53.256;6.456;2023-07-22T08:13:48;12.95;;;8.75;;
51764;SDS011;37835;53.256;6.456;2023-07-22T08:16:15;13.95;;;9.13;;
51764;SDS011;37835;53.256;6.456;2023-07-22T08:18:40;14.48;;;9.18;;
51764;SDS011;37835;53.256;6.456;2023-07-22T08:21:06;12.90;;;9.23;;
51764;SDS011;37835;53.256;6.456;2023-07-22T08:23:33;13.55;;;8.18;;
51764;SDS011;37835;53.256;6.456;2023-07-22T08:25:59;12.98;;;8.45;;
51764;SDS011;37835;53.256;6.456;2023-07-22T08:28:24;10.90;;;8.02;;
51764;SDS011;37835;53.256;6.456;2023-07-22T08:30:53;16.50;;;8.95;;
51764;SDS011;37835;53.256;6.456;2023-07-22T08:33:20;10.90;;;8.05;;
51764;SDS011;37835;53.256;6.456;2023-07-22T08:35:46;12.98;;;8.13;;
51764;SDS011;37835;53.256;6.456;2023-07-22T08:38:13;11.15;;;8.15;;
51764;SDS011;37835;53.256;6.456;2023-07-22T08:40:39;16.23;;;9.40;;
51764;SDS011;37835;53.256;6.456;2023-07-22T08:43:09;12.18;;;8.32;;
51764;SDS011;37835;53.256;6.456;2023-07-22T08:45:37;11.90;;;8.30;;
51764;SDS011;37835;53.256;6.456;2023-07-22T08:48:07;10.95;;;7.68;;
51764;SDS011;37835;53.256;6.456;2023-07-22T08:50:37;10.37;;;7.57;;
51764;SDS011;37835;53.256;6.456;2023-07-22T08:53:09;12.02;;;7.90;;
51764;SDS011;37835;53.256;6.456;2023-07-22T08:55:35;15.27;;;8.23;;
51764;SDS011;37835;53.256;6.456;2023-07-22T08:58:02;11.18;;;8.15;;
51764;SDS011;37835;53.256;6.456;2023-07-22T09:00:28;8.57;;;6.80;;
51764;SDS011;37835;53.256;6.456;2023-07-22T09:02:54;8.13;;;6.90;;
51764;SDS011;37835;53.256;6.456;2023-07-22T09:05:21;11.45;;;7.28;;
51764;SDS011;37835;53.256;6.456;2023-07-22T09:07:47;6.65;;;5.93;;
51764;SDS011;37835;53.256;6.456;2023-07-22T09:10:13;6.72;;;5.07;;
51764;SDS011;37835;53.256;6.456;2023-07-22T09:12:40;7.63;;;5.80;;
51764;SDS011;37835;53.256;6.456;2023-07-22T09:15:11;10.43;;;5.38;;
51764;SDS011;37835;53.256;6.456;2023-07-22T09:17:40;10.75;;;6.93;;
51764;SDS011;37835;53.256;6.456;2023-07-22T09:20:06;7.32;;;5.95;;
51764;SDS011;37835;53.256;6.456;2023-07-22T09:22:33;8.38;;;6.13;;
51764;SDS011;37835;53.256;6.456;2023-07-22T09:28:00;8.90;;;5.95;;
51764;SDS011;37835;53.256;6.456;2023-07-22T09:30:27;8.15;;;5.93;;
51764;SDS011;37835;53.256;6.456;2023-07-22T09:32:56;9.07;;;5.75;;
51764;SDS011;37835;53.256;6.456;2023-07-22T09:35:25;10.15;;;5.88;;
51764;SDS011;37835;53.256;6.456;2023-07-22T09:40:23;14.50;;;7.40;;
51764;SDS011;37835;53.256;6.456;2023-07-22T09:42:50;12.65;;;7.93;;
51764;SDS011;37835;53.256;6.456;2023-07-22T09:45:18;9.93;;;6.97;;
51764;SDS011;37835;53.256;6.456;2023-07-22T09:47:48;8.07;;;6.68;;
51764;SDS011;37835;53.256;6.456;2023-07-22T09:50:16;10.15;;;7.28;;
51764;SDS011;37835;53.256;6.456;2023-07-22T09:52:52;13.48;;;8.80;;
51764;SDS011;37835;53.256;6.456;2023-07-22T09:55:23;14.75;;;8.77;;
51764;SDS011;37835;53.256;6.456;2023-07-22T09:57:51;15.38;;;9.93;;
51764;SDS011;37835;53.256;6.456;2023-07-22T10:00:18;12.80;;;9.85;;
51764;SDS011;37835;53.256;6.456;2023-07-22T10:02:45;15.70;;;9.75;;
51764;SDS011;37835;53.256;6.456;2023-07-22T10:05:13;12.75;;;8.68;;
51764;SDS011;37835;53.256;6.456;2023-07-22T10:07:42;11.70;;;8.18;;
51764;SDS011;37835;53.256;6.456;2023-07-22T10:10:10;11.25;;;7.85;;
51764;SDS011;37835;53.256;6.456;2023-07-22T10:12:39;11.23;;;7.78;;
51764;SDS011;37835;53.256;6.456;2023-07-22T10:15:05;9.73;;;8.25;;
51764;SDS011;37835;53.256;6.456;2023-07-22T10:17:32;10.10;;;7.45;;
51764;SDS011;37835;53.256;6.456;2023-07-22T10:19:59;12.48;;;8.63;;
51764;SDS011;37835;53.256;6.456;2023-07-22T10:22:24;11.60;;;8.30;;
51764;SDS011;37835;53.256;6.456;2023-07-22T10:24:53;14.55;;;9.30;;
51764;SDS011;37835;53.256;6.456;2023-07-22T10:27:20;13.05;;;8.90;;
51764;SDS011;37835;53.256;6.456;2023-07-22T10:29:46;14.40;;;9.18;;
51764;SDS011;37835;53.256;6.456;2023-07-22T10:32:12;12.57;;;8.93;;
51764;SDS011;37835;53.256;6.456;2023-07-22T10:34:37;13.98;;;9.55;;
51764;SDS011;37835;53.256;6.456;2023-07-22T10:37:03;15.23;;;9.00;;
51764;SDS011;37835;53.256;6.456;2023-07-22T10:39:29;15.50;;;9.43;;
51764;SDS011;37835;53.256;6.456;2023-07-22T10:42:04;13.10;;;9.27;;
51764;SDS011;37835;53.256;6.456;2023-07-22T10:44:31;10.02;;;8.23;;
51764;SDS011;37835;53.256;6.456;2023-07-22T10:46:58;11.52;;;8.20;;
51764;SDS011;37835;53.256;6.456;2023-07-22T10:49:24;12.20;;;9.15;;
51764;SDS011;37835;53.256;6.456;2023-07-22T10:52:06;9.90;;;7.63;;
51764;SDS011;37835;53.256;6.456;2023-07-22T10:54:33;11.20;;;7.18;;
51764;SDS011;37835;53.256;6.456;2023-07-22T10:57:04;8.52;;;6.53;;
51764;SDS011;37835;53.256;6.456;2023-07-22T10:59:49;9.75;;;7.35;;
51764;SDS011;37835;53.256;6.456;2023-07-22T11:02:25;8.60;;;6.55;;
51764;SDS011;37835;53.256;6.456;2023-07-22T11:04:52;7.38;;;5.88;;
51764;SDS011;37835;53.256;6.456;2023-07-22T11:07:33;8.65;;;6.40;;
51764;SDS011;37835;53.256;6.456;2023-07-22T11:10:17;7.13;;;6.13;;
51764;SDS011;37835;53.256;6.456;2023-07-22T11:12:44;6.30;;;5.70;;
51764;SDS011;37835;53.256;6.456;2023-07-22T11:15:10;7.45;;;5.95;;
51764;SDS011;37835;53.256;6.456;2023-07-22T11:17:36;8.43;;;5.78;;
51764;SDS011;37835;53.256;6.456;2023-07-22T11:20:02;8.95;;;5.70;;
51764;SDS011;37835;53.256;6.456;2023-07-22T11:22:28;8.00;;;5.05;;
51764;SDS011;37835;53.256;6.456;2023-07-22T11:24:55;7.38;;;5.55;;
51764;SDS011;37835;53.256;6.456;2023-07-22T11:27:23;7.45;;;5.82;;
51764;SDS011;37835;53.256;6.456;2023-07-22T11:29:49;7.15;;;6.30;;
51764;SDS011;37835;53.256;6.456;2023-07-22T11:32:18;7.13;;;6.07;;
51764;SDS011;37835;53.256;6.456;2023-07-22T11:34:48;13.52;;;7.13;;
51764;SDS011;37835;53.256;6.456;2023-07-22T11:37:16;10.13;;;7.05;;
51764;SDS011;37835;53.256;6.456;2023-07-22T11:39:43;8.00;;;6.35;;
51764;SDS011;37835;53.256;6.456;2023-07-22T11:42:09;9.02;;;6.55;;
51764;SDS011;37835;53.256;6.456;2023-07-22T11:44:36;9.95;;;5.88;;
51764;SDS011;37835;53.256;6.456;2023-07-22T11:47:03;7.47;;;6.32;;
51764;SDS011;37835;53.256;6.456;2023-07-22T11:49:30;7.38;;;5.50;;
51764;SDS011;37835;53.256;6.456;2023-07-22T11:54:28;5.88;;;5.30;;
51764;SDS011;37835;53.256;6.456;2023-07-22T11:56:55;7.47;;;5.60;;
51764;SDS011;37835;53.256;6.456;2023-07-22T11:59:33;7.35;;;6.07;;
51764;SDS011;37835;53.256;6.456;2023-07-22T12:02:03;7.03;;;6.00;;
51764;SDS011;37835;53.256;6.456;2023-07-22T12:04:32;8.55;;;6.10;;
51764;SDS011;37835;53.256;6.456;2023-07-22T12:06:59;9.52;;;6.40;;
51764;SDS011;37835;53.256;6.456;2023-07-22T12:09:26;9.05;;;6.80;;
51764;SDS011;37835;53.256;6.456;2023-07-22T12:11:55;12.13;;;7.60;;
51764;SDS011;37835;53.256;6.456;2023-07-22T12:14:23;9.30;;;7.40;;
51764;SDS011;37835;53.256;6.456;2023-07-22T12:16:52;8.23;;;7.28;;
51764;SDS011;37835;53.256;6.456;2023-07-22T12:19:23;8.63;;;7.38;;
51764;SDS011;37835;53.256;6.456;2023-07-22T12:21:49;10.18;;;7.90;;
51764;SDS011;37835;53.256;6.456;2023-07-22T12:24:15;8.93;;;8.02;;
51764;SDS011;37835;53.256;6.456;2023-07-22T12:26:40;10.45;;;8.27;;
51764;SDS011;37835;53.256;6.456;2023-07-22T12:29:07;9.45;;;8.00;;
51764;SDS011;37835;53.256;6.456;2023-07-22T12:31:33;11.85;;;7.50;;
51764;SDS011;37835;53.256;6.456;2023-07-22T12:33:59;10.07;;;8.40;;
51764;SDS011;37835;53.256;6.456;2023-07-22T12:36:24;9.25;;;7.75;;
51764;SDS011;37835;53.256;6.456;2023-07-22T12:38:50;9.30;;;8.27;;
51764;SDS011;37835;53.256;6.456;2023-07-22T12:41:16;9.80;;;7.85;;
51764;SDS011;37835;53.256;6.456;2023-07-22T12:43:42;10.27;;;8.38;;
51764;SDS011;37835;53.256;6.456;2023-07-22T12:46:07;11.73;;;8.85;;
51764;SDS011;37835;53.256;6.456;2023-07-22T12:48:33;14.25;;;10.20;;
51764;SDS011;37835;53.256;6.456;2023-07-22T12:50:58;12.88;;;9.98;;
51764;SDS011;37835;53.256;6.456;2023-07-22T12:53:25;11.93;;;10.75;;
51764;SDS011;37835;53.256;6.456;2023-07-22T12:55:51;12.43;;;11.13;;
51764;SDS011;37835;53.256;6.456;2023-07-22T12:58:16;12.80;;;10.65;;
51764;SDS011;37835;53.256;6.456;2023-07-22T13:00:42;12.48;;;11.18;;
51764;SDS011;37835;53.256;6.456;2023-07-22T13:03:07;12.90;;;10.43;;
51764;SDS011;37835;53.256;6.456;2023-07-22T13:05:33;11.15;;;9.80;;
51764;SDS011;37835;53.256;6.456;2023-07-22T13:07:58;12.13;;;9.32;;
51764;SDS011;37835;53.256;6.456;2023-07-22T13:10:26;13.90;;;9.43;;
51764;SDS011;37835;53.256;6.456;2023-07-22T13:12:53;9.55;;;8.50;;
51764;SDS011;37835;53.256;6.456;2023-07-22T13:15:19;11.55;;;9.32;;
51764;SDS011;37835;53.256;6.456;2023-07-22T13:17:45;10.30;;;8.57;;
51764;SDS011;37835;53.256;6.456;2023-07-22T13:20:11;8.95;;;8.05;;
51764;SDS011;37835;53.256;6.456;2023-07-22T13:22:40;9.35;;;8.15;;
51764;SDS011;37835;53.256;6.456;2023-07-22T13:25:05;10.20;;;8.95;;
51764;SDS011;37835;53.256;6.456;2023-07-22T13:27:31;11.70;;;9.25;;
51764;SDS011;37835;53.256;6.456;2023-07-22T13:29:57;10.50;;;9.35;;
51764;SDS011;37835;53.256;6.456;2023-07-22T13:32:23;14.23;;;9.38;;
51764;SDS011;37835;53.256;6.456;2023-07-22T13:34:49;13.80;;;8.77;;
51764;SDS011;37835;53.256;6.456;2023-07-22T13:37:14;8.77;;;7.82;;
51764;SDS011;37835;53.256;6.456;2023-07-22T13:39:41;10.77;;;8.60;;
51764;SDS011;37835;53.256;6.456;2023-07-22T13:42:06;12.05;;;9.27;;
51764;SDS011;37835;53.256;6.456;2023-07-22T13:44:32;10.32;;;7.38;;
51764;SDS011;37835;53.256;6.456;2023-07-22T13:46:59;11.75;;;8.02;;
51764;SDS011;37835;53.256;6.456;2023-07-22T13:49:25;12.48;;;8.40;;
51764;SDS011;37835;53.256;6.456;2023-07-22T13:51:50;9.98;;;7.95;;
51764;SDS011;37835;53.256;6.456;2023-07-22T13:54:16;9.32;;;7.88;;
51764;SDS011;37835;53.256;6.456;2023-07-22T13:56:41;10.52;;;8.30;;
51764;SDS011;37835;53.256;6.456;2023-07-22T13:59:08;8.85;;;7.88;;
51764;SDS011;37835;53.256;6.456;2023-07-22T14:01:34;9.52;;;8.00;;
51764;SDS011;37835;53.256;6.456;2023-07-22T14:04:00;13.90;;;9.77;;
51764;SDS011;37835;53.256;6.456;2023-07-22T14:06:26;16.27;;;9.90;;
51764;SDS011;37835;53.256;6.456;2023-07-22T14:08:51;10.52;;;9.43;;
51764;SDS011;37835;53.256;6.456;2023-07-22T14:11:17;15.43;;;10.88;;
51764;SDS011;37835;53.256;6.456;2023-07-22T14:13:43;14.35;;;11.10;;
51764;SDS011;37835;53.256;6.456;2023-07-22T14:16:08;11.07;;;10.07;;
51764;SDS011;37835;53.256;6.456;2023-07-22T14:18:34;12.65;;;11.05;;
51764;SDS011;37835;53.256;6.456;2023-07-22T14:21:00;12.85;;;11.10;;
51764;SDS011;37835;53.256;6.456;2023-07-22T14:23:26;7.32;;;5.10;;
51764;SDS011;37835;53.256;6.456;2023-07-22T14:25:51;5.30;;;3.75;;
51764;SDS011;37835;53.256;6.456;2023-07-22T14:28:17;5.70;;;3.30;;
51764;SDS011;37835;53.256;6.456;2023-07-22T14:30:42;6.82;;;3.45;;
51764;SDS011;37835;53.256;6.456;2023-07-22T14:33:08;4.85;;;3.65;;
51764;SDS011;37835;53.256;6.456;2023-07-22T14:35:33;5.65;;;3.90;;
51764;SDS011;37835;53.256;6.456;2023-07-22T14:37:59;5.97;;;3.33;;
51764;SDS011;37835;53.256;6.456;2023-07-22T14:40:25;5.68;;;3.70;;
51764;SDS011;37835;53.256;6.456;2023-07-22T14:42:51;8.68;;;3.70;;
51764;SDS011;37835;53.256;6.456;2023-07-22T14:45:16;5.80;;;3.58;;
51764;SDS011;37835;53.256;6.456;2023-07-22T14:47:42;5.57;;;4.20;;
51764;SDS011;37835;53.256;6.456;2023-07-22T14:50:08;6.50;;;4.50;;